Riverton, Indiana
Current Conditions -  °F | °C
As of 7:15 PM on Saturday 22 Nov 2014 (Local Time) from KRSV Reporting Station
Broken Clouds Broken Clouds  
Wind Chill: 55°   Ceiling: 10000
Heat Index: 55°   Visibility: 10mi
Dew Point: 42°   Wind: 8mph
Humidity: 61%   Direction: 180°S
Pressure: 30.02"   Gusts: NA
Location:  39.0138°N, 87.523°W
Report Text: KRSV 230015Z AUTO 18007KT 10SM SCT050 SCT075 BKN100 13/06 A3002 RMK AO2 T01300057
Loading
Personal Weather Stations






























Interactive Weather Map New forecast layout! Learn more

10-Day Weather Forecast

Advertisements
Track Severe Weather on mobile